createdAt,value
2017-06-29T00:02:07.001Z,15.93
2017-06-29T00:04:35.352Z,17.47
2017-06-29T00:07:03.712Z,18.90
2017-06-29T00:09:33.004Z,20.23
2017-06-29T00:12:01.335Z,18.87
2017-06-29T00:14:29.643Z,18.50
2017-06-29T00:16:58.754Z,18.97
2017-06-29T00:19:27.820Z,19.23
2017-06-29T00:21:56.551Z,19.87
2017-06-29T00:24:24.859Z,17.67
2017-06-29T00:26:53.184Z,18.90
2017-06-29T00:29:21.540Z,17.73
2017-06-29T00:31:49.853Z,19.10
2017-06-29T00:34:18.182Z,18.30
2017-06-29T00:36:46.505Z,18.87
2017-06-29T00:39:14.854Z,17.70
2017-06-29T00:41:43.165Z,18.30
2017-06-29T00:44:11.914Z,18.40
2017-06-29T00:46:40.237Z,19.13
2017-06-29T00:49:08.581Z,18.97
2017-06-29T00:51:37.012Z,19.33
2017-06-29T00:54:05.783Z,18.03
2017-06-29T00:56:34.113Z,18.20
2017-06-29T00:59:02.446Z,19.90
2017-06-29T01:01:30.768Z,19.57
2017-06-29T01:03:59.114Z,18.10
2017-06-29T01:06:28.392Z,17.80
2017-06-29T01:08:56.696Z,18.13
2017-06-29T01:11:26.179Z,18.43
2017-06-29T01:13:54.595Z,20.03
2017-06-29T01:16:22.958Z,18.27
2017-06-29T01:18:51.655Z,18.13
2017-06-29T01:23:48.610Z,17.10
2017-06-29T01:26:16.949Z,16.83
2017-06-29T01:28:45.657Z,16.20
2017-06-29T01:31:14.772Z,17.90
2017-06-29T01:33:43.096Z,16.07
2017-06-29T01:36:11.447Z,16.30
2017-06-29T01:38:39.786Z,15.63
2017-06-29T01:41:08.874Z,15.93
2017-06-29T01:43:37.991Z,17.63
2017-06-29T01:46:06.699Z,16.57
2017-06-29T01:48:35.496Z,16.50
2017-06-29T01:51:03.903Z,16.20
2017-06-29T01:53:32.628Z,17.27
2017-06-29T01:56:00.930Z,19.23
2017-06-29T01:58:29.673Z,17.17
2017-06-29T02:00:57.984Z,16.83
2017-06-29T02:03:26.404Z,15.63
2017-06-29T02:05:54.716Z,17.10
2017-06-29T02:08:23.159Z,17.87
2017-06-29T02:10:51.509Z,17.60
2017-06-29T02:13:19.907Z,21.03
2017-06-29T02:15:48.244Z,19.70
2017-06-29T02:18:16.565Z,17.67
2017-06-29T02:20:44.906Z,16.83
2017-06-29T02:23:14.263Z,17.83
2017-06-29T02:25:43.403Z,17.97
2017-06-29T02:28:12.520Z,16.60
2017-06-29T02:30:40.917Z,16.30
2017-06-29T02:33:09.234Z,14.83
2017-06-29T02:35:37.671Z,18.47
2017-06-29T02:38:05.975Z,16.83
2017-06-29T02:40:35.051Z,17.57
2017-06-29T02:43:03.382Z,18.50
2017-06-29T02:45:31.695Z,17.90
2017-06-29T02:48:00.804Z,17.97
2017-06-29T02:50:30.307Z,16.50
2017-06-29T02:52:58.638Z,15.90
2017-06-29T02:55:27.349Z,16.70
2017-06-29T02:57:55.752Z,17.40
2017-06-29T03:00:24.929Z,17.40
2017-06-29T03:02:54.129Z,19.70
2017-06-29T03:05:23.190Z,19.97
2017-06-29T03:07:51.531Z,19.57
2017-06-29T03:10:20.596Z,19.43
2017-06-29T03:12:49.302Z,19.70
2017-06-29T03:15:18.417Z,19.80
2017-06-29T03:17:46.927Z,19.50
2017-06-29T03:20:15.659Z,20.87
2017-06-29T03:22:44.766Z,20.43
2017-06-29T03:25:13.104Z,22.53
2017-06-29T03:27:41.408Z,20.47
2017-06-29T03:30:09.799Z,22.27
2017-06-29T03:32:38.159Z,20.10
2017-06-29T03:35:07.228Z,20.60
2017-06-29T03:37:35.614Z,22.83
2017-06-29T03:40:04.689Z,21.27
2017-06-29T03:42:33.835Z,18.43
2017-06-29T03:45:02.907Z,19.00
2017-06-29T03:47:31.247Z,20.23
2017-06-29T03:49:59.560Z,21.70
2017-06-29T03:52:27.905Z,22.10
2017-06-29T03:54:56.215Z,22.90
2017-06-29T03:57:24.532Z,25.23
2017-06-29T03:59:52.880Z,24.70
2017-06-29T04:02:21.175Z,24.37
2017-06-29T04:04:49.635Z,24.97
2017-06-29T04:07:18.703Z,26.80
2017-06-29T04:09:47.109Z,25.93
2017-06-29T04:12:15.823Z,26.13
2017-06-29T04:14:44.186Z,25.80
2017-06-29T04:17:12.553Z,24.23
2017-06-29T04:19:41.665Z,26.63
2017-06-29T04:22:09.982Z,27.00
2017-06-29T04:24:38.404Z,28.10
2017-06-29T04:27:06.744Z,26.30
2017-06-29T04:29:35.235Z,29.00
2017-06-29T04:32:03.561Z,28.27
2017-06-29T04:34:31.865Z,28.17
2017-06-29T04:37:00.980Z,30.33
2017-06-29T04:39:29.290Z,32.83
2017-06-29T04:41:57.638Z,32.63
2017-06-29T04:44:25.950Z,34.07
2017-06-29T04:46:54.280Z,34.40
2017-06-29T04:49:22.644Z,31.07
2017-06-29T04:51:51.352Z,34.87
2017-06-29T04:54:19.707Z,33.80
2017-06-29T04:56:48.018Z,32.53
2017-06-29T04:59:16.770Z,26.43
2017-06-29T05:01:45.168Z,31.63
2017-06-29T05:04:13.497Z,31.07
2017-06-29T05:06:41.809Z,32.90
2017-06-29T05:09:10.141Z,31.30
2017-06-29T05:11:38.446Z,31.80
2017-06-29T05:14:07.215Z,33.00
2017-06-29T05:16:35.522Z,33.27
2017-06-29T05:19:03.828Z,32.33
2017-06-29T05:21:32.954Z,34.23
2017-06-29T05:24:01.350Z,37.00
2017-06-29T05:26:29.713Z,35.90
2017-06-29T05:28:58.042Z,35.60
2017-06-29T05:31:26.371Z,34.60
2017-06-29T05:33:54.686Z,34.27
2017-06-29T05:36:23.017Z,34.57
2017-06-29T05:38:51.756Z,35.00
2017-06-29T05:41:20.134Z,34.33
2017-06-29T05:43:48.495Z,36.30
2017-06-29T05:46:16.799Z,35.33
2017-06-29T05:48:45.662Z,37.60
2017-06-29T05:51:13.982Z,36.47
2017-06-29T05:53:42.409Z,38.60
2017-06-29T05:56:10.739Z,36.40
2017-06-29T05:58:39.842Z,38.13
2017-06-29T06:01:08.173Z,36.80
2017-06-29T06:03:36.563Z,36.87
2017-06-29T06:06:05.285Z,36.00
2017-06-29T06:08:33.600Z,37.20
2017-06-29T06:11:01.953Z,39.43
2017-06-29T06:13:30.683Z,37.93
2017-06-29T06:15:59.019Z,39.03
2017-06-29T06:18:27.440Z,40.93
2017-06-29T06:20:55.773Z,38.57
2017-06-29T06:23:24.196Z,38.07
2017-06-29T06:25:52.532Z,39.20
2017-06-29T06:28:20.859Z,37.93
2017-06-29T06:30:49.171Z,40.87
2017-06-29T06:33:17.876Z,37.77
2017-06-29T06:35:46.184Z,38.27
2017-06-29T06:38:14.563Z,41.63
2017-06-29T06:40:42.864Z,40.80
2017-06-29T06:43:11.975Z,40.77
2017-06-29T06:45:40.292Z,42.23
2017-06-29T06:48:08.670Z,42.73
2017-06-29T06:50:37.074Z,43.77
2017-06-29T06:53:05.767Z,45.10
2017-06-29T06:55:34.118Z,38.30
2017-06-29T06:58:02.536Z,47.13
2017-06-29T07:00:30.843Z,46.00
2017-06-29T07:02:59.188Z,43.90
2017-06-29T07:05:28.256Z,44.33
2017-06-29T07:07:57.043Z,44.00
2017-06-29T07:10:25.354Z,45.30
2017-06-29T07:12:54.421Z,45.33
2017-06-29T07:15:22.765Z,46.47
2017-06-29T07:17:51.076Z,44.47
2017-06-29T07:20:19.415Z,45.33
2017-06-29T07:22:47.763Z,45.70
2017-06-29T07:25:16.082Z,44.90
2017-06-29T07:27:45.214Z,44.57
2017-06-29T07:30:14.318Z,46.80
2017-06-29T07:32:43.412Z,46.87
2017-06-29T07:35:11.780Z,46.77
2017-06-29T07:37:40.085Z,43.87
2017-06-29T07:40:08.407Z,44.43
2017-06-29T07:42:37.657Z,41.87
2017-06-29T07:45:06.089Z,40.67
2017-06-29T07:47:34.396Z,42.80
2017-06-29T07:50:03.479Z,43.03
2017-06-29T07:52:31.799Z,45.00
2017-06-29T07:55:00.122Z,44.23
2017-06-29T07:57:28.457Z,45.90
2017-06-29T07:59:56.869Z,43.60
2017-06-29T08:02:25.619Z,45.03
2017-06-29T08:04:53.933Z,46.37
2017-06-29T08:07:23.083Z,48.50
2017-06-29T08:09:51.400Z,45.70
2017-06-29T08:12:19.740Z,45.83
2017-06-29T08:14:48.058Z,44.20
2017-06-29T08:17:16.376Z,49.27
2017-06-29T08:19:44.699Z,50.17
2017-06-29T08:22:13.009Z,49.10
2017-06-29T08:24:42.224Z,49.10
2017-06-29T08:27:11.175Z,48.10
2017-06-29T08:29:39.476Z,48.73
2017-06-29T08:32:08.582Z,50.13
2017-06-29T08:34:37.665Z,50.60
2017-06-29T08:37:06.032Z,48.87
2017-06-29T08:39:34.378Z,50.27
2017-06-29T08:42:02.706Z,47.07
2017-06-29T08:44:31.464Z,47.40
2017-06-29T08:46:59.771Z,47.07
2017-06-29T08:49:28.223Z,48.50
2017-06-29T08:51:56.582Z,45.73
2017-06-29T08:54:24.895Z,46.90
2017-06-29T08:56:54.004Z,43.60
2017-06-29T08:59:22.318Z,44.70
2017-06-29T09:01:50.659Z,46.03
2017-06-29T09:04:18.978Z,48.57
2017-06-29T09:06:47.371Z,47.10
2017-06-29T09:09:15.728Z,45.77
2017-06-29T09:11:44.036Z,50.33
2017-06-29T09:14:12.377Z,49.07
2017-06-29T09:16:40.705Z,46.00
2017-06-29T09:19:09.787Z,45.37
2017-06-29T09:21:38.115Z,44.00
2017-06-29T09:24:06.582Z,42.70
2017-06-29T09:26:34.928Z,39.03
2017-06-29T09:29:04.047Z,41.17
2017-06-29T09:31:32.361Z,35.03
2017-06-29T09:34:00.697Z,39.13
2017-06-29T09:36:29.007Z,36.23
2017-06-29T09:38:57.368Z,37.00
2017-06-29T09:41:25.713Z,34.73
2017-06-29T09:43:54.809Z,37.83
2017-06-29T09:46:23.159Z,39.00
2017-06-29T09:48:51.476Z,37.17
2017-06-29T09:51:19.839Z,38.10
2017-06-29T09:53:48.933Z,38.80
2017-06-29T09:56:18.032Z,36.70
2017-06-29T09:58:46.374Z,35.27
2017-06-29T10:01:14.681Z,36.10
2017-06-29T10:03:43.007Z,39.30
2017-06-29T10:06:11.320Z,39.30
2017-06-29T10:08:40.506Z,38.17
2017-06-29T10:11:08.850Z,39.70
2017-06-29T10:13:37.217Z,39.63
2017-06-29T10:16:05.548Z,39.40
2017-06-29T10:18:34.642Z,37.30
2017-06-29T10:21:03.749Z,38.53
2017-06-29T10:23:32.077Z,39.20
2017-06-29T10:26:00.409Z,39.87
2017-06-29T10:28:29.494Z,39.30
2017-06-29T10:30:57.821Z,41.80
2017-06-29T10:33:26.228Z,40.10
2017-06-29T10:35:54.588Z,40.00
2017-06-29T10:38:22.895Z,40.43
2017-06-29T10:40:51.301Z,41.57
2017-06-29T10:43:19.614Z,42.93
2017-06-29T10:45:47.935Z,40.13
2017-06-29T10:48:17.020Z,40.50
2017-06-29T10:50:45.364Z,41.83
2017-06-29T10:53:13.701Z,43.93
2017-06-29T10:55:42.029Z,49.17
2017-06-29T10:58:10.343Z,47.30
2017-06-29T11:00:38.704Z,46.53
2017-06-29T11:03:07.032Z,49.30
2017-06-29T11:05:35.853Z,47.70
2017-06-29T11:08:04.173Z,50.27
2017-06-29T11:10:33.293Z,44.70
2017-06-29T11:13:01.636Z,41.30
2017-06-29T11:15:29.952Z,43.90
2017-06-29T11:17:58.275Z,41.03
2017-06-29T11:20:27.397Z,37.13
2017-06-29T11:22:55.836Z,45.20
2017-06-29T11:25:24.147Z,42.33
2017-06-29T11:27:52.484Z,40.13
2017-06-29T11:30:20.810Z,43.27
2017-06-29T11:32:49.125Z,33.23
2017-06-29T11:35:17.455Z,33.40
2017-06-29T11:37:45.775Z,35.07
2017-06-29T11:40:14.092Z,33.57
2017-06-29T11:42:42.431Z,34.00
2017-06-29T11:45:10.743Z,29.17
2017-06-29T11:47:39.085Z,32.77
2017-06-29T11:50:07.554Z,36.33
2017-06-29T11:52:35.958Z,36.70
2017-06-29T11:55:04.260Z,40.80
2017-06-29T11:57:32.579Z,41.00
2017-06-29T12:00:01.666Z,43.00
2017-06-29T12:02:29.990Z,39.63
2017-06-29T12:04:58.309Z,43.53
2017-06-29T12:07:26.656Z,43.47
2017-06-29T12:09:55.768Z,35.27
2017-06-29T12:12:24.101Z,34.00
2017-06-29T12:14:52.822Z,33.77
2017-06-29T12:17:22.467Z,36.07
2017-06-29T12:19:50.779Z,38.60
2017-06-29T12:22:19.124Z,36.67
2017-06-29T12:24:47.484Z,33.00
2017-06-29T12:27:15.793Z,29.40
2017-06-29T12:29:44.137Z,31.73
2017-06-29T12:32:12.498Z,32.00
2017-06-29T12:34:40.819Z,34.87
2017-06-29T12:37:09.143Z,34.87
2017-06-29T12:39:37.461Z,34.30
2017-06-29T12:42:05.823Z,34.57
2017-06-29T12:44:34.146Z,30.13
2017-06-29T12:47:12.378Z,29.50
2017-06-29T12:49:40.691Z,29.10
2017-06-29T12:52:10.935Z,33.67
2017-06-29T12:54:39.231Z,34.87
2017-06-29T12:57:18.108Z,37.17
2017-06-29T12:59:46.427Z,38.03
2017-06-29T13:02:14.999Z,41.10
2017-06-29T13:04:43.388Z,43.30
2017-06-29T13:07:11.728Z,44.27
2017-06-29T13:09:40.071Z,48.57
2017-06-29T13:12:08.386Z,47.67
2017-06-29T13:14:36.710Z,46.07
2017-06-29T13:17:05.805Z,45.60
2017-06-29T13:19:34.288Z,47.87
2017-06-29T13:22:03.373Z,47.43
2017-06-29T13:24:31.686Z,45.90
2017-06-29T13:27:00.044Z,46.83
2017-06-29T13:29:29.210Z,43.73
2017-06-29T13:31:57.553Z,43.80
2017-06-29T13:34:25.875Z,43.20
2017-06-29T13:36:54.195Z,43.03
2017-06-29T13:39:22.556Z,41.20
2017-06-29T13:41:50.889Z,42.50
2017-06-29T13:44:19.197Z,43.20
2017-06-29T13:46:47.543Z,38.63
2017-06-29T13:49:16.628Z,41.30
2017-06-29T13:51:44.952Z,38.23
2017-06-29T13:54:14.042Z,36.97
2017-06-29T13:56:43.172Z,36.37
2017-06-29T13:59:11.486Z,37.60
2017-06-29T14:01:39.803Z,38.00
2017-06-29T14:04:08.141Z,38.70
2017-06-29T14:06:36.496Z,36.27
2017-06-29T14:09:04.809Z,39.73
2017-06-29T14:11:33.118Z,38.83
2017-06-29T14:14:01.462Z,33.17
2017-06-29T14:16:30.583Z,34.30
2017-06-29T14:18:58.944Z,36.87
2017-06-29T14:21:27.292Z,35.33
2017-06-29T14:23:55.612Z,31.43
2017-06-29T14:26:23.947Z,31.83
2017-06-29T14:28:52.280Z,32.87
2017-06-29T14:31:21.020Z,33.07
2017-06-29T14:33:49.375Z,33.27
2017-06-29T14:36:17.686Z,35.83
2017-06-29T14:38:46.020Z,34.90
2017-06-29T14:41:14.732Z,36.60
2017-06-29T14:43:43.104Z,34.40
2017-06-29T14:46:11.413Z,35.40
2017-06-29T14:48:40.516Z,33.67
2017-06-29T14:51:08.841Z,35.47
2017-06-29T14:53:37.176Z,37.70
2017-06-29T14:56:05.502Z,35.43
2017-06-29T14:58:33.830Z,30.90
2017-06-29T15:01:02.563Z,28.63
2017-06-29T15:03:30.914Z,28.17
2017-06-29T15:05:59.241Z,23.77
2017-06-29T15:08:28.348Z,26.00
2017-06-29T15:10:57.427Z,24.77
2017-06-29T15:13:25.799Z,25.93
2017-06-29T15:15:54.134Z,24.10
2017-06-29T15:18:22.443Z,24.30
2017-06-29T15:20:50.771Z,22.03
2017-06-29T15:23:19.506Z,24.60
2017-06-29T15:25:47.850Z,22.57
2017-06-29T15:28:16.187Z,19.97
2017-06-29T15:30:45.295Z,21.27
2017-06-29T15:33:13.603Z,20.67
2017-06-29T15:35:42.343Z,21.97
2017-06-29T15:38:11.454Z,21.10
2017-06-29T15:40:39.776Z,21.03
2017-06-29T15:43:08.108Z,21.93
2017-06-29T15:45:36.434Z,20.60
2017-06-29T15:48:04.815Z,21.37
2017-06-29T15:50:33.144Z,20.13
2017-06-29T15:53:01.476Z,19.30
2017-06-29T15:55:29.801Z,17.90
2017-06-29T15:57:58.152Z,19.27
2017-06-29T16:00:27.228Z,20.33
2017-06-29T16:02:55.564Z,19.03
2017-06-29T16:05:23.880Z,20.17
2017-06-29T16:07:52.206Z,20.20
2017-06-29T16:10:20.525Z,19.57
2017-06-29T16:12:48.916Z,22.87
2017-06-29T16:15:17.237Z,22.90
2017-06-29T16:17:45.582Z,23.93
2017-06-29T16:20:13.893Z,22.93
2017-06-29T16:22:42.260Z,22.47
2017-06-29T16:25:11.102Z,23.73
2017-06-29T16:27:39.534Z,25.93
2017-06-29T16:30:07.883Z,27.87
2017-06-29T16:32:36.964Z,29.10
2017-06-29T16:35:05.395Z,31.07
2017-06-29T16:37:33.782Z,30.90
2017-06-29T16:40:02.096Z,29.90
2017-06-29T16:42:30.439Z,32.33
2017-06-29T16:44:58.776Z,34.07
2017-06-29T16:47:27.219Z,31.73
2017-06-29T16:49:55.533Z,33.20
2017-06-29T16:52:24.631Z,36.53
2017-06-29T16:54:52.980Z,38.50
2017-06-29T16:57:21.325Z,38.47
2017-06-29T16:59:49.722Z,42.53
2017-06-29T17:02:18.076Z,43.90
2017-06-29T17:04:46.433Z,40.37
2017-06-29T17:07:14.758Z,40.40
2017-06-29T17:09:43.081Z,41.57
2017-06-29T17:12:11.397Z,43.10
2017-06-29T17:14:39.728Z,41.40
2017-06-29T17:17:08.076Z,40.60
2017-06-29T17:19:37.258Z,40.40
2017-06-29T17:22:05.588Z,40.43
2017-06-29T17:24:33.899Z,42.70
2017-06-29T17:27:03.019Z,39.83
2017-06-29T17:29:32.099Z,37.93
2017-06-29T17:32:00.899Z,38.30
2017-06-29T17:34:29.231Z,35.63
2017-06-29T17:36:57.547Z,37.10
2017-06-29T17:39:25.915Z,40.80
2017-06-29T17:41:54.280Z,38.13
2017-06-29T17:44:22.583Z,39.27
2017-06-29T17:46:50.902Z,50.53
2017-06-29T17:49:19.237Z,38.70
2017-06-29T17:51:48.324Z,39.73
2017-06-29T17:54:16.674Z,37.17
2017-06-29T17:56:44.984Z,36.77
2017-06-29T17:59:13.725Z,37.87
2017-06-29T18:01:42.039Z,41.03
2017-06-29T18:04:10.353Z,42.50
2017-06-29T18:06:38.695Z,45.17
2017-06-29T18:09:08.524Z,48.00
2017-06-29T18:11:36.892Z,52.67
2017-06-29T18:14:05.590Z,47.83
2017-06-29T18:16:34.311Z,49.97
2017-06-29T18:19:02.655Z,51.47
2017-06-29T18:21:30.986Z,48.70
2017-06-29T18:23:59.348Z,50.57
2017-06-29T18:26:27.674Z,49.67
2017-06-29T18:28:55.981Z,59.47
2017-06-29T18:31:24.989Z,52.40
2017-06-29T18:33:53.309Z,52.53
2017-06-29T18:36:21.659Z,51.10
2017-06-29T18:38:49.964Z,55.30
2017-06-29T18:41:19.076Z,49.90
2017-06-29T18:43:48.169Z,55.23
2017-06-29T18:46:16.537Z,54.73
2017-06-29T18:48:45.616Z,55.37
2017-06-29T18:51:14.059Z,52.07
2017-06-29T18:53:42.460Z,52.20
2017-06-29T18:56:10.764Z,51.20
2017-06-29T18:58:39.896Z,51.17
2017-06-29T19:01:08.219Z,50.00
2017-06-29T19:03:36.575Z,48.30
2017-06-29T19:06:05.288Z,54.93
2017-06-29T19:08:33.607Z,52.60
2017-06-29T19:11:01.952Z,51.27
2017-06-29T19:13:30.681Z,46.60
2017-06-29T19:15:59.021Z,44.00
2017-06-29T19:18:28.109Z,44.60
2017-06-29T19:20:56.452Z,43.23
2017-06-29T19:23:24.769Z,42.97
2017-06-29T19:25:53.916Z,48.13
2017-06-29T19:28:22.649Z,44.40
2017-06-29T19:30:52.669Z,41.70
2017-06-29T19:33:21.418Z,44.40
2017-06-29T19:35:49.742Z,42.57
2017-06-29T19:38:18.854Z,37.60
2017-06-29T19:40:47.211Z,36.23
2017-06-29T19:43:16.325Z,33.13
2017-06-29T19:45:44.657Z,30.50
2017-06-29T19:48:12.982Z,29.87
2017-06-29T19:50:41.310Z,27.67
2017-06-29T19:53:09.650Z,28.77
2017-06-29T19:55:37.960Z,31.13
2017-06-29T19:58:06.304Z,27.30
2017-06-29T20:00:34.660Z,29.03
2017-06-29T20:03:03.093Z,29.57
2017-06-29T20:05:31.423Z,30.07
2017-06-29T20:08:14.841Z,29.07
2017-06-29T20:10:49.813Z,32.27
2017-06-29T20:13:18.128Z,34.07
2017-06-29T20:15:47.255Z,28.10
2017-06-29T20:18:15.585Z,28.90
2017-06-29T20:20:44.682Z,33.83
2017-06-29T20:23:13.027Z,32.20
2017-06-29T20:25:41.332Z,31.77
2017-06-29T20:28:09.692Z,36.23
2017-06-29T20:30:38.013Z,30.97
2017-06-29T20:33:07.140Z,31.60
2017-06-29T20:35:35.531Z,31.60
2017-06-29T20:38:03.835Z,31.07
2017-06-29T20:40:32.201Z,30.77
2017-06-29T20:43:00.552Z,32.20
2017-06-29T20:45:28.872Z,32.40
2017-06-29T20:47:57.236Z,28.00
2017-06-29T20:50:25.588Z,29.90
2017-06-29T20:52:53.883Z,31.17
2017-06-29T20:55:22.239Z,30.60
2017-06-29T20:57:51.168Z,30.90
2017-06-29T21:00:19.494Z,30.80
2017-06-29T21:02:47.854Z,31.10
2017-06-29T21:05:16.203Z,30.77
2017-06-29T21:07:44.508Z,31.80
2017-06-29T21:10:12.874Z,30.87
2017-06-29T21:12:41.327Z,32.20
2017-06-29T21:15:10.943Z,32.00
2017-06-29T21:17:44.085Z,32.30
2017-06-29T21:20:14.072Z,31.03
2017-06-29T21:22:43.255Z,30.47
2017-06-29T21:25:12.375Z,30.17
2017-06-29T21:27:40.696Z,30.73
2017-06-29T21:30:09.851Z,31.23
2017-06-29T21:32:39.183Z,30.70
2017-06-29T21:35:08.493Z,30.40
2017-06-29T21:37:37.574Z,34.07
2017-06-29T21:40:05.939Z,31.57
2017-06-29T21:42:34.499Z,30.17
2017-06-29T21:45:03.030Z,32.17
2017-06-29T21:47:45.722Z,29.70
2017-06-29T21:50:14.567Z,33.30
2017-06-29T21:52:53.947Z,29.87
2017-06-29T21:55:27.968Z,28.23
2017-06-29T21:58:00.517Z,29.60
2017-06-29T22:00:36.334Z,30.27
2017-06-29T22:03:11.545Z,29.63
2017-06-29T22:05:44.012Z,29.87
2017-06-29T22:08:12.333Z,26.50
2017-06-29T22:10:45.614Z,33.40
2017-06-29T22:13:17.984Z,27.67
2017-06-29T22:15:50.663Z,30.03
2017-06-29T22:18:22.675Z,29.10
2017-06-29T22:20:55.650Z,31.47
2017-06-29T22:23:23.972Z,29.30
2017-06-29T22:25:52.575Z,34.47
2017-06-29T22:28:20.880Z,27.87
2017-06-29T22:30:49.180Z,31.33
2017-06-29T22:33:17.589Z,30.30
2017-06-29T22:35:46.033Z,28.10
2017-06-29T22:38:14.344Z,29.70
2017-06-29T22:40:42.668Z,30.40
2017-06-29T22:43:11.046Z,30.10
2017-06-29T22:45:39.356Z,29.47
2017-06-29T22:48:07.700Z,29.50
2017-06-29T22:50:36.014Z,29.63
2017-06-29T22:53:04.338Z,30.13
2017-06-29T22:55:33.421Z,27.40
2017-06-29T22:58:02.544Z,28.47
2017-06-29T23:00:30.855Z,30.00
2017-06-29T23:02:59.162Z,27.03
2017-06-29T23:05:27.504Z,24.57
2017-06-29T23:07:55.815Z,27.93
2017-06-29T23:10:24.167Z,27.70
2017-06-29T23:12:52.480Z,28.00
2017-06-29T23:15:21.558Z,27.33
2017-06-29T23:17:49.894Z,27.03
2017-06-29T23:20:18.212Z,28.57
2017-06-29T23:22:46.829Z,29.70
2017-06-29T23:25:15.163Z,26.87
2017-06-29T23:27:43.488Z,28.50
2017-06-29T23:30:11.805Z,28.13
2017-06-29T23:32:40.136Z,28.97
2017-06-29T23:35:08.469Z,27.50
2017-06-29T23:37:36.800Z,26.87
2017-06-29T23:40:05.110Z,27.27
2017-06-29T23:42:33.433Z,28.33
2017-06-29T23:45:01.782Z,31.17
2017-06-29T23:47:30.092Z,26.53
2017-06-29T23:49:58.414Z,26.93
2017-06-29T23:52:26.752Z,26.93
2017-06-29T23:54:55.090Z,27.13
2017-06-29T23:57:23.408Z,26.27
2017-06-29T23:59:51.835Z,28.80
